sensor_id;sensor_type;location;lat;lon;timestamp;pressure;altitude;pressure_sealevel;temperature;humidity
76858;BME280;65830;0.000;0.000;2023-02-01T00:01:13;99849.03;;;4.51;52.63
76858;BME280;65830;0.000;0.000;2023-02-01T00:03:39;99847.47;;;4.49;53.28
76858;BME280;65830;0.000;0.000;2023-02-01T00:06:04;99837.88;;;4.62;52.59
76858;BME280;65830;0.000;0.000;2023-02-01T00:08:30;99841.03;;;4.67;52.50
76858;BME280;65830;0.000;0.000;2023-02-01T00:11:03;99843.41;;;4.72;51.96
76858;BME280;65830;0.000;0.000;2023-02-01T00:13:30;99846.03;;;4.57;52.57
76858;BME280;65830;0.000;0.000;2023-02-01T00:16:03;99838.34;;;4.54;52.35
76858;BME280;65830;0.000;0.000;2023-02-01T00:18:28;99850.72;;;4.67;52.01
76858;BME280;65830;0.000;0.000;2023-02-01T00:20:54;99848.19;;;4.65;51.60
76858;BME280;65830;0.000;0.000;2023-02-01T00:23:19;99844.53;;;4.68;51.66
76858;BME280;65830;0.000;0.000;2023-02-01T00:25:45;99833.91;;;4.69;51.89
76858;BME280;65830;0.000;0.000;2023-02-01T00:28:10;99845.03;;;4.60;52.01
76858;BME280;65830;0.000;0.000;2023-02-01T00:30:38;99840.28;;;4.65;51.92
76858;BME280;65830;0.000;0.000;2023-02-01T00:33:04;99846.03;;;4.57;52.13
76858;BME280;65830;0.000;0.000;2023-02-01T00:35:29;99840.03;;;4.70;51.84
76858;BME280;65830;0.000;0.000;2023-02-01T00:37:55;99848.56;;;4.59;51.92
76858;BME280;65830;0.000;0.000;2023-02-01T00:40:20;99847.25;;;4.52;52.84
76858;BME280;65830;0.000;0.000;2023-02-01T00:42:46;99848.78;;;4.42;52.90
76858;BME280;65830;0.000;0.000;2023-02-01T00:45:11;99852.63;;;4.50;52.36
76858;BME280;65830;0.000;0.000;2023-02-01T00:47:37;99848.78;;;4.42;52.83
76858;BME280;65830;0.000;0.000;2023-02-01T00:50:02;99857.03;;;4.35;52.69
76858;BME280;65830;0.000;0.000;2023-02-01T00:52:28;99853.41;;;4.38;52.76
76858;BME280;65830;0.000;0.000;2023-02-01T00:54:53;99857.59;;;4.41;52.61
76858;BME280;65830;0.000;0.000;2023-02-01T00:57:19;99854.16;;;4.40;52.42
76858;BME280;65830;0.000;0.000;2023-02-01T00:59:44;99847.84;;;4.43;52.47
76858;BME280;65830;0.000;0.000;2023-02-01T01:02:10;99841.84;;;4.41;52.52
76858;BME280;65830;0.000;0.000;2023-02-01T01:04:37;99843.34;;;4.45;52.52
76858;BME280;65830;0.000;0.000;2023-02-01T01:07:03;99837.41;;;4.55;51.96
76858;BME280;65830;0.000;0.000;2023-02-01T01:09:29;99838.28;;;4.56;52.49
76858;BME280;65830;0.000;0.000;2023-02-01T01:11:54;99834.59;;;4.58;52.13
76858;BME280;65830;0.000;0.000;2023-02-01T01:14:20;99832.75;;;4.46;52.79
76858;BME280;65830;0.000;0.000;2023-02-01T01:16:46;99837.13;;;4.46;52.59
76858;BME280;65830;0.000;0.000;2023-02-01T01:19:11;99835.63;;;4.42;52.51
76858;BME280;65830;0.000;0.000;2023-02-01T01:21:37;99838.91;;;4.45;52.63
76858;BME280;65830;0.000;0.000;2023-02-01T01:24:02;99833.47;;;4.34;52.94
76858;BME280;65830;0.000;0.000;2023-02-01T01:26:28;99835.28;;;4.33;53.07
76858;BME280;65830;0.000;0.000;2023-02-01T01:28:55;99839.31;;;4.39;53.13
76858;BME280;65830;0.000;0.000;2023-02-01T01:31:21;99839.78;;;4.31;53.18
76858;BME280;65830;0.000;0.000;2023-02-01T01:33:50;99835.56;;;4.29;53.04
76858;BME280;65830;0.000;0.000;2023-02-01T01:36:16;99844.56;;;4.25;53.37
76858;BME280;65830;0.000;0.000;2023-02-01T01:38:42;99837.97;;;4.32;52.97
76858;BME280;65830;0.000;0.000;2023-02-01T01:41:08;99836.69;;;4.25;53.08
76858;BME280;65830;0.000;0.000;2023-02-01T01:46:15;99839.97;;;4.28;53.14
76858;BME280;65830;0.000;0.000;2023-02-01T01:48:40;99843.34;;;4.30;53.18
76858;BME280;65830;0.000;0.000;2023-02-01T01:51:07;99847.19;;;4.10;53.41
76858;BME280;65830;0.000;0.000;2023-02-01T01:53:43;99842.69;;;4.12;53.66
76858;BME280;65830;0.000;0.000;2023-02-01T01:56:10;99844.38;;;3.99;53.99
76858;BME280;65830;0.000;0.000;2023-02-01T01:58:36;99842.13;;;3.93;53.80
76858;BME280;65830;0.000;0.000;2023-02-01T02:01:02;99843.41;;;3.86;53.85
76858;BME280;65830;0.000;0.000;2023-02-01T02:05:53;99837.72;;;3.93;54.12
76858;BME280;65830;0.000;0.000;2023-02-01T02:08:20;99840.13;;;3.82;54.12
76858;BME280;65830;0.000;0.000;2023-02-01T02:10:48;99836.00;;;3.78;54.11
76858;BME280;65830;0.000;0.000;2023-02-01T02:21:22;99838.22;;;3.70;54.28
76858;BME280;65830;0.000;0.000;2023-02-01T02:23:59;99835.69;;;3.68;54.37
76858;BME280;65830;0.000;0.000;2023-02-01T02:26:36;99839.19;;;3.69;54.27
76858;BME280;65830;0.000;0.000;2023-02-01T02:36:39;99847.53;;;3.75;53.69
76858;BME280;65830;0.000;0.000;2023-02-01T02:39:21;99843.94;;;3.76;53.89
76858;BME280;65830;0.000;0.000;2023-02-01T02:47:24;99850.97;;;3.62;54.37
76858;BME280;65830;0.000;0.000;2023-02-01T02:50:08;99854.72;;;3.72;54.21
76858;BME280;65830;0.000;0.000;2023-02-01T02:53:01;99855.69;;;3.71;54.19
76858;BME280;65830;0.000;0.000;2023-02-01T02:55:46;99856.22;;;3.76;54.01
76858;BME280;65830;0.000;0.000;2023-02-01T02:58:12;99850.06;;;3.77;54.20
76858;BME280;65830;0.000;0.000;2023-02-01T03:00:57;99842.56;;;3.71;54.42
76858;BME280;65830;0.000;0.000;2023-02-01T03:03:42;99848.84;;;3.83;54.28
76858;BME280;65830;0.000;0.000;2023-02-01T03:06:34;99841.97;;;3.66;54.33
76858;BME280;65830;0.000;0.000;2023-02-01T03:09:01;99844.38;;;3.85;54.06
76858;BME280;65830;0.000;0.000;2023-02-01T03:11:29;99831.56;;;3.78;54.09
76858;BME280;65830;0.000;0.000;2023-02-01T03:14:16;99837.19;;;3.72;54.34
76858;BME280;65830;0.000;0.000;2023-02-01T03:16:46;99840.41;;;3.77;54.07
76858;BME280;65830;0.000;0.000;2023-02-01T03:19:15;99839.06;;;3.70;53.98
76858;BME280;65830;0.000;0.000;2023-02-01T03:21:45;99849.88;;;3.80;54.34
76858;BME280;65830;0.000;0.000;2023-02-01T03:24:23;99854.75;;;3.86;53.70
76858;BME280;65830;0.000;0.000;2023-02-01T03:27:21;99848.66;;;3.86;53.94
76858;BME280;65830;0.000;0.000;2023-02-01T03:32:32;99851.66;;;3.80;54.54
76858;BME280;65830;0.000;0.000;2023-02-01T03:35:18;99858.09;;;3.74;54.49
76858;BME280;65830;0.000;0.000;2023-02-01T03:37:46;99854.19;;;3.81;54.72
76858;BME280;65830;0.000;0.000;2023-02-01T03:40:12;99857.19;;;3.75;54.69
76858;BME280;65830;0.000;0.000;2023-02-01T03:42:40;99857.56;;;3.69;55.23
76858;BME280;65830;0.000;0.000;2023-02-01T03:47:35;99850.06;;;3.77;54.74
76858;BME280;65830;0.000;0.000;2023-02-01T03:50:04;99843.13;;;3.76;55.03
76858;BME280;65830;0.000;0.000;2023-02-01T03:52:33;99846.94;;;3.70;55.02
76858;BME280;65830;0.000;0.000;2023-02-01T03:55:03;99866.19;;;3.71;55.39
76858;BME280;65830;0.000;0.000;2023-02-01T03:57:37;99847.97;;;3.68;55.50
76858;BME280;65830;0.000;0.000;2023-02-01T04:00:18;99860.19;;;3.69;55.77
76858;BME280;65830;0.000;0.000;2023-02-01T04:02:44;99857.56;;;3.69;55.25
76858;BME280;65830;0.000;0.000;2023-02-01T04:05:10;99852.25;;;3.54;55.99
76858;BME280;65830;0.000;0.000;2023-02-01T04:07:44;99855.06;;;3.51;56.17
76858;BME280;65830;0.000;0.000;2023-02-01T04:10:10;99859.47;;;3.51;56.20
76858;BME280;65830;0.000;0.000;2023-02-01T04:12:36;99855.72;;;3.55;56.20
76858;BME280;65830;0.000;0.000;2023-02-01T04:15:01;99858.25;;;3.56;55.28
76858;BME280;65830;0.000;0.000;2023-02-01T04:17:27;99856.84;;;3.51;55.57
76858;BME280;65830;0.000;0.000;2023-02-01T04:19:52;99859.19;;;3.55;55.61
76858;BME280;65830;0.000;0.000;2023-02-01T04:22:18;99882.53;;;3.60;55.40
76858;BME280;65830;0.000;0.000;2023-02-01T04:24:43;99872.31;;;3.55;55.12
76858;BME280;65830;0.000;0.000;2023-02-01T04:27:09;99880.41;;;3.67;54.89
76858;BME280;65830;0.000;0.000;2023-02-01T04:29:34;99874.06;;;3.71;54.37
76858;BME280;65830;0.000;0.000;2023-02-01T04:32:00;99884.03;;;3.64;54.10
76858;BME280;65830;0.000;0.000;2023-02-01T04:34:25;99895.84;;;3.57;54.46
76858;BME280;65830;0.000;0.000;2023-02-01T04:36:51;99891.25;;;3.61;54.10
76858;BME280;65830;0.000;0.000;2023-02-01T04:39:17;99905.22;;;3.61;54.09
76858;BME280;65830;0.000;0.000;2023-02-01T04:41:42;99906.16;;;3.60;54.27
76858;BME280;65830;0.000;0.000;2023-02-01T04:44:15;99905.13;;;3.63;53.61
76858;BME280;65830;0.000;0.000;2023-02-01T04:46:41;99897.59;;;3.56;53.88
76858;BME280;65830;0.000;0.000;2023-02-01T04:49:08;99901.25;;;3.54;53.83
76858;BME280;65830;0.000;0.000;2023-02-01T04:51:34;99899.78;;;3.64;53.53
76858;BME280;65830;0.000;0.000;2023-02-01T04:54:00;99901.41;;;3.67;53.51
76858;BME280;65830;0.000;0.000;2023-02-01T04:56:25;99904.03;;;3.67;53.15
76858;BME280;65830;0.000;0.000;2023-02-01T04:58:54;99896.69;;;3.57;53.35
76858;BME280;65830;0.000;0.000;2023-02-01T05:01:21;99903.44;;;3.62;53.33
76858;BME280;65830;0.000;0.000;2023-02-01T05:03:46;99900.97;;;3.58;52.65
76858;BME280;65830;0.000;0.000;2023-02-01T05:06:12;99900.22;;;3.56;53.02
76858;BME280;65830;0.000;0.000;2023-02-01T05:08:37;99897.88;;;3.52;52.46
76858;BME280;65830;0.000;0.000;2023-02-01T05:11:03;99904.41;;;3.45;52.53
76858;BME280;65830;0.000;0.000;2023-02-01T05:13:29;99910.91;;;3.53;52.17
76858;BME280;65830;0.000;0.000;2023-02-01T05:16:13;99906.41;;;3.55;51.98
76858;BME280;65830;0.000;0.000;2023-02-01T05:18:39;99914.81;;;3.46;51.84
76858;BME280;65830;0.000;0.000;2023-02-01T05:21:04;99911.16;;;3.49;51.88
76858;BME280;65830;0.000;0.000;2023-02-01T05:23:30;99908.50;;;3.65;51.59
76858;BME280;65830;0.000;0.000;2023-02-01T05:25:59;99903.91;;;3.68;51.45
76858;BME280;65830;0.000;0.000;2023-02-01T05:28:26;99897.00;;;3.67;51.16
76858;BME280;65830;0.000;0.000;2023-02-01T05:30:52;99898.66;;;3.68;51.78
76858;BME280;65830;0.000;0.000;2023-02-01T05:33:17;99888.16;;;3.68;51.59
76858;BME280;65830;0.000;0.000;2023-02-01T05:35:43;99893.72;;;3.78;51.47
76858;BME280;65830;0.000;0.000;2023-02-01T05:38:08;99894.44;;;3.66;51.45
76858;BME280;65830;0.000;0.000;2023-02-01T05:40:34;99889.22;;;3.66;51.79
76858;BME280;65830;0.000;0.000;2023-02-01T05:42:59;99895.28;;;3.66;51.50
76858;BME280;65830;0.000;0.000;2023-02-01T05:45:25;99899.44;;;3.70;51.83
76858;BME280;65830;0.000;0.000;2023-02-01T05:47:50;99902.13;;;3.85;51.85
76858;BME280;65830;0.000;0.000;2023-02-01T05:50:16;99898.38;;;3.89;51.75
76858;BME280;65830;0.000;0.000;2023-02-01T05:52:42;99898.44;;;3.87;52.04
76858;BME280;65830;0.000;0.000;2023-02-01T05:55:07;99892.25;;;3.88;51.47
76858;BME280;65830;0.000;0.000;2023-02-01T05:57:33;99898.25;;;3.90;51.30
76858;BME280;65830;0.000;0.000;2023-02-01T05:59:58;99911.97;;;3.95;50.95
76858;BME280;65830;0.000;0.000;2023-02-01T06:02:24;99901.47;;;3.95;50.72
76858;BME280;65830;0.000;0.000;2023-02-01T06:04:50;99898.94;;;3.94;50.60
76858;BME280;65830;0.000;0.000;2023-02-01T06:07:15;99897.16;;;3.94;50.40
76858;BME280;65830;0.000;0.000;2023-02-01T06:09:41;99896.59;;;3.89;49.79
76858;BME280;65830;0.000;0.000;2023-02-01T06:12:06;99905.22;;;4.06;49.40
76858;BME280;65830;0.000;0.000;2023-02-01T06:14:32;99906.94;;;4.07;49.32
76858;BME280;65830;0.000;0.000;2023-02-01T06:16:57;99906.56;;;4.13;49.20
76858;BME280;65830;0.000;0.000;2023-02-01T06:19:23;99911.25;;;4.22;48.73
76858;BME280;65830;0.000;0.000;2023-02-01T06:21:49;99906.28;;;4.17;48.74
76858;BME280;65830;0.000;0.000;2023-02-01T06:24:14;99911.44;;;4.19;48.07
76858;BME280;65830;0.000;0.000;2023-02-01T06:26:40;99917.75;;;4.31;47.53
76858;BME280;65830;0.000;0.000;2023-02-01T06:29:07;99915.50;;;4.39;47.27
76858;BME280;65830;0.000;0.000;2023-02-01T06:31:35;99917.66;;;4.47;47.26
76858;BME280;65830;0.000;0.000;2023-02-01T06:34:01;99916.06;;;4.44;47.50
76858;BME280;65830;0.000;0.000;2023-02-01T06:36:28;99921.41;;;4.57;47.02
76858;BME280;65830;0.000;0.000;2023-02-01T06:38:53;99920.19;;;4.48;46.84
76858;BME280;65830;0.000;0.000;2023-02-01T06:41:22;99921.97;;;4.62;46.54
76858;BME280;65830;0.000;0.000;2023-02-01T06:43:47;99921.38;;;4.71;46.61
76858;BME280;65830;0.000;0.000;2023-02-01T06:46:12;99923.53;;;4.79;46.73
76858;BME280;65830;0.000;0.000;2023-02-01T06:48:38;99923.72;;;4.90;46.25
76858;BME280;65830;0.000;0.000;2023-02-01T06:51:04;99927.84;;;4.94;45.83
76858;BME280;65830;0.000;0.000;2023-02-01T06:53:29;99923.91;;;5.02;44.81
76858;BME280;65830;0.000;0.000;2023-02-01T06:55:56;99929.28;;;4.86;45.57
76858;BME280;65830;0.000;0.000;2023-02-01T06:58:22;99941.09;;;4.93;45.93
76858;BME280;65830;0.000;0.000;2023-02-01T07:00:47;99939.22;;;4.95;45.58
76858;BME280;65830;0.000;0.000;2023-02-01T07:03:13;99944.31;;;4.84;45.75
76858;BME280;65830;0.000;0.000;2023-02-01T07:05:39;99934.44;;;4.87;46.19
76858;BME280;65830;0.000;0.000;2023-02-01T07:08:05;99944.84;;;4.89;45.79
76858;BME280;65830;0.000;0.000;2023-02-01T07:10:30;99944.47;;;4.95;45.85
76858;BME280;65830;0.000;0.000;2023-02-01T07:12:56;99936.53;;;5.09;45.81
76858;BME280;65830;0.000;0.000;2023-02-01T07:15:22;99942.94;;;5.20;45.68
76858;BME280;65830;0.000;0.000;2023-02-01T07:17:48;99934.38;;;5.16;45.91
76858;BME280;65830;0.000;0.000;2023-02-01T07:20:14;99944.94;;;5.02;46.42
76858;BME280;65830;0.000;0.000;2023-02-01T07:22:40;99944.66;;;5.06;46.29
76858;BME280;65830;0.000;0.000;2023-02-01T07:25:05;99947.72;;;5.13;45.87
76858;BME280;65830;0.000;0.000;2023-02-01T07:27:33;99946.84;;;5.00;45.82
76858;BME280;65830;0.000;0.000;2023-02-01T07:29:59;99951.59;;;5.07;46.60
76858;BME280;65830;0.000;0.000;2023-02-01T07:32:27;99945.56;;;5.05;45.63
76858;BME280;65830;0.000;0.000;2023-02-01T07:34:52;99956.66;;;5.10;45.42
76858;BME280;65830;0.000;0.000;2023-02-01T07:37:18;99945.09;;;5.13;45.31
76858;BME280;65830;0.000;0.000;2023-02-01T07:39:43;99941.06;;;5.22;45.40
76858;BME280;65830;0.000;0.000;2023-02-01T07:42:09;99946.09;;;5.25;45.05
76858;BME280;65830;0.000;0.000;2023-02-01T07:44:34;99943.78;;;5.20;44.89
76858;BME280;65830;0.000;0.000;2023-02-01T07:47:00;99946.84;;;5.27;44.77
76858;BME280;65830;0.000;0.000;2023-02-01T07:49:26;99945.69;;;5.31;45.10
76858;BME280;65830;0.000;0.000;2023-02-01T07:51:51;99948.81;;;5.37;44.16
76858;BME280;65830;0.000;0.000;2023-02-01T07:54:17;99952.38;;;5.36;43.87
76858;BME280;65830;0.000;0.000;2023-02-01T07:56:43;99950.22;;;5.43;44.43
76858;BME280;65830;0.000;0.000;2023-02-01T07:59:08;99957.22;;;5.57;44.18
76858;BME280;65830;0.000;0.000;2023-02-01T08:01:34;99963.72;;;5.51;44.53
76858;BME280;65830;0.000;0.000;2023-02-01T08:04:00;99955.69;;;5.53;44.44
76858;BME280;65830;0.000;0.000;2023-02-01T08:06:27;99948.56;;;5.55;45.13
76858;BME280;65830;0.000;0.000;2023-02-01T08:08:53;99953.88;;;5.68;44.77
76858;BME280;65830;0.000;0.000;2023-02-01T08:11:18;99952.47;;;5.62;44.89
76858;BME280;65830;0.000;0.000;2023-02-01T08:13:44;99950.00;;;5.73;45.15
76858;BME280;65830;0.000;0.000;2023-02-01T08:16:10;99959.78;;;5.71;44.91
76858;BME280;65830;0.000;0.000;2023-02-01T08:18:36;99954.19;;;5.76;44.78
76858;BME280;65830;0.000;0.000;2023-02-01T08:21:25;99964.81;;;5.74;45.02
76858;BME280;65830;0.000;0.000;2023-02-01T08:23:49;99971.13;;;5.72;45.50
76858;BME280;65830;0.000;0.000;2023-02-01T08:26:16;99962.50;;;5.70;44.82
76858;BME280;65830;0.000;0.000;2023-02-01T08:28:43;99959.28;;;5.79;45.41
76858;BME280;65830;0.000;0.000;2023-02-01T08:31:10;99960.03;;;5.81;45.19
76858;BME280;65830;0.000;0.000;2023-02-01T08:33:37;99965.72;;;5.88;44.97
76858;BME280;65830;0.000;0.000;2023-02-01T08:36:03;99968.03;;;5.92;45.26
76858;BME280;65830;0.000;0.000;2023-02-01T08:38:29;99961.19;;;5.90;45.20
76858;BME280;65830;0.000;0.000;2023-02-01T08:40:55;99965.78;;;6.01;45.09
76858;BME280;65830;0.000;0.000;2023-02-01T08:43:20;99975.03;;;6.06;44.50
76858;BME280;65830;0.000;0.000;2023-02-01T08:45:46;99968.63;;;6.10;45.04
76858;BME280;65830;0.000;0.000;2023-02-01T08:48:11;99979.41;;;6.20;44.71
76858;BME280;65830;0.000;0.000;2023-02-01T08:50:36;99970.13;;;6.14;44.14
76858;BME280;65830;0.000;0.000;2023-02-01T08:53:02;99963.16;;;6.13;44.79
76858;BME280;65830;0.000;0.000;2023-02-01T08:55:27;99956.75;;;6.18;44.81
76858;BME280;65830;0.000;0.000;2023-02-01T08:57:53;99957.81;;;6.28;44.22
76858;BME280;65830;0.000;0.000;2023-02-01T09:00:19;99963.91;;;6.54;44.53
76858;BME280;65830;0.000;0.000;2023-02-01T09:02:44;99965.19;;;6.61;44.06
76858;BME280;65830;0.000;0.000;2023-02-01T09:05:10;99948.50;;;6.73;43.72
76858;BME280;65830;0.000;0.000;2023-02-01T09:07:36;99949.59;;;6.71;44.14
76858;BME280;65830;0.000;0.000;2023-02-01T09:10:02;99958.00;;;6.89;43.96
76858;BME280;65830;0.000;0.000;2023-02-01T09:12:28;99954.91;;;6.95;44.19
76858;BME280;65830;0.000;0.000;2023-02-01T09:14:57;99950.91;;;7.02;44.45
76858;BME280;65830;0.000;0.000;2023-02-01T09:17:25;99953.22;;;7.07;44.17
76858;BME280;65830;0.000;0.000;2023-02-01T09:19:51;99948.84;;;7.19;44.74
76858;BME280;65830;0.000;0.000;2023-02-01T09:22:16;99941.78;;;7.19;44.42
76858;BME280;65830;0.000;0.000;2023-02-01T09:24:42;99928.72;;;7.18;44.43
76858;BME280;65830;0.000;0.000;2023-02-01T09:27:07;99934.00;;;7.18;44.29
76858;BME280;65830;0.000;0.000;2023-02-01T09:29:33;99931.63;;;7.26;44.12
76858;BME280;65830;0.000;0.000;2023-02-01T09:31:58;99931.69;;;7.37;43.84
76858;BME280;65830;0.000;0.000;2023-02-01T09:34:24;99916.81;;;7.36;43.64
76858;BME280;65830;0.000;0.000;2023-02-01T09:36:50;99927.09;;;7.28;43.67
76858;BME280;65830;0.000;0.000;2023-02-01T09:39:15;99916.81;;;7.36;43.72
76858;BME280;65830;0.000;0.000;2023-02-01T09:47:22;99911.59;;;7.47;44.34
76858;BME280;65830;0.000;0.000;2023-02-01T09:52:15;99907.31;;;7.58;42.39
76858;BME280;65830;0.000;0.000;2023-02-01T09:54:52;99901.41;;;7.54;42.83
76858;BME280;65830;0.000;0.000;2023-02-01T09:57:24;99880.28;;;7.54;42.83
76858;BME280;65830;0.000;0.000;2023-02-01T09:59:52;99895.84;;;7.70;42.02
76858;BME280;65830;0.000;0.000;2023-02-01T10:02:21;99890.09;;;7.76;42.47
76858;BME280;65830;0.000;0.000;2023-02-01T10:04:48;99911.00;;;7.79;42.11
76858;BME280;65830;0.000;0.000;2023-02-01T10:09:57;99904.78;;;7.91;41.86
76858;BME280;65830;0.000;0.000;2023-02-01T10:22:40;99884.75;;;8.00;41.68
76858;BME280;65830;0.000;0.000;2023-02-01T10:25:09;99886.56;;;8.00;42.57
76858;BME280;65830;0.000;0.000;2023-02-01T10:27:38;99871.28;;;7.92;41.96
76858;BME280;65830;0.000;0.000;2023-02-01T10:32:38;99867.06;;;8.01;42.46
76858;BME280;65830;0.000;0.000;2023-02-01T10:35:22;99858.22;;;8.24;41.77
76858;BME280;65830;0.000;0.000;2023-02-01T10:37:49;99860.00;;;8.12;41.41
76858;BME280;65830;0.000;0.000;2023-02-01T10:40:19;99856.88;;;7.96;41.86
76858;BME280;65830;0.000;0.000;2023-02-01T10:42:57;99855.34;;;8.05;41.84
76858;BME280;65830;0.000;0.000;2023-02-01T10:45:25;99870.09;;;8.07;42.28
76858;BME280;65830;0.000;0.000;2023-02-01T10:47:52;99853.66;;;8.15;42.12
76858;BME280;65830;0.000;0.000;2023-02-01T10:58:10;99850.31;;;8.13;41.60
76858;BME280;65830;0.000;0.000;2023-02-01T11:01:00;99855.72;;;8.23;41.75
76858;BME280;65830;0.000;0.000;2023-02-01T11:03:40;99844.06;;;8.25;41.30
76858;BME280;65830;0.000;0.000;2023-02-01T11:06:25;99832.16;;;8.31;41.93
76858;BME280;65830;0.000;0.000;2023-02-01T11:08:52;99834.44;;;8.58;40.83
76858;BME280;65830;0.000;0.000;2023-02-01T11:11:19;99825.78;;;8.56;41.34
76858;BME280;65830;0.000;0.000;2023-02-01T11:13:45;99806.06;;;8.71;40.67
76858;BME280;65830;0.000;0.000;2023-02-01T11:16:16;99804.84;;;8.75;40.36
76858;BME280;65830;0.000;0.000;2023-02-01T11:18:43;99802.91;;;8.89;39.71
76858;BME280;65830;0.000;0.000;2023-02-01T11:21:09;99828.47;;;9.00;39.95
76858;BME280;65830;0.000;0.000;2023-02-01T11:23:39;99801.84;;;9.24;39.77
76858;BME280;65830;0.000;0.000;2023-02-01T11:29:04;99799.97;;;9.78;38.99
76858;BME280;65830;0.000;0.000;2023-02-01T11:31:34;99811.88;;;10.14;38.17
76858;BME280;65830;0.000;0.000;2023-02-01T11:34:04;99811.91;;;10.45;37.55
76858;BME280;65830;0.000;0.000;2023-02-01T11:36:31;99782.69;;;11.05;36.76
76858;BME280;65830;0.000;0.000;2023-02-01T11:41:42;99779.03;;;14.69;31.70
76858;BME280;65830;0.000;0.000;2023-02-01T11:46:53;99779.22;;;17.79;26.69
76858;BME280;65830;0.000;0.000;2023-02-01T11:49:23;99802.78;;;18.06;26.34
76858;BME280;65830;0.000;0.000;2023-02-01T11:59:49;99781.56;;;18.56;25.14
76858;BME280;65830;0.000;0.000;2023-02-01T12:02:32;99775.28;;;18.19;25.12
76858;BME280;65830;0.000;0.000;2023-02-01T12:10:29;99767.72;;;18.74;24.55
76858;BME280;65830;0.000;0.000;2023-02-01T12:15:35;99762.28;;;18.53;24.66
76858;BME280;65830;0.000;0.000;2023-02-01T12:23:40;99769.41;;;16.79;26.89
76858;BME280;65830;0.000;0.000;2023-02-01T12:44:19;99771.50;;;18.65;24.70
76858;BME280;65830;0.000;0.000;2023-02-01T12:46:53;99749.28;;;19.08;24.09
76858;BME280;65830;0.000;0.000;2023-02-01T12:49:29;99744.03;;;19.21;23.79
76858;BME280;65830;0.000;0.000;2023-02-01T12:52:04;99748.94;;;20.30;22.82
76858;BME280;65830;0.000;0.000;2023-02-01T12:57:00;99751.00;;;19.93;22.97
76858;BME280;65830;0.000;0.000;2023-02-01T12:59:31;99758.13;;;19.23;23.87
76858;BME280;65830;0.000;0.000;2023-02-01T13:07:17;99769.16;;;16.26;26.80
76858;BME280;65830;0.000;0.000;2023-02-01T13:12:24;99759.41;;;14.95;28.82
76858;BME280;65830;0.000;0.000;2023-02-01T13:14:57;99771.25;;;14.50;30.17
76858;BME280;65830;0.000;0.000;2023-02-01T13:17:26;99799.13;;;13.87;30.00
76858;BME280;65830;0.000;0.000;2023-02-01T13:22:20;99786.09;;;13.22;31.16
76858;BME280;65830;0.000;0.000;2023-02-01T13:27:37;99786.78;;;13.60;31.26
76858;BME280;65830;0.000;0.000;2023-02-01T13:30:13;99783.53;;;14.35;30.24
76858;BME280;65830;0.000;0.000;2023-02-01T13:40:46;99778.81;;;18.05;24.88
76858;BME280;65830;0.000;0.000;2023-02-01T13:43:26;99781.84;;;18.17;24.73
76858;BME280;65830;0.000;0.000;2023-02-01T13:45:56;99784.25;;;17.97;24.68
76858;BME280;65830;0.000;0.000;2023-02-01T13:48:25;99785.00;;;17.67;25.14
76858;BME280;65830;0.000;0.000;2023-02-01T13:50:54;99775.81;;;16.70;25.77
76858;BME280;65830;0.000;0.000;2023-02-01T13:53:30;99787.13;;;16.48;26.35
76858;BME280;65830;0.000;0.000;2023-02-01T13:58:32;99780.28;;;15.65;27.61
76858;BME280;65830;0.000;0.000;2023-02-01T14:03:43;99763.75;;;15.62;27.40
76858;BME280;65830;0.000;0.000;2023-02-01T14:06:43;99773.78;;;15.84;27.14
76858;BME280;65830;0.000;0.000;2023-02-01T14:11:38;99769.25;;;15.85;27.06
76858;BME280;65830;0.000;0.000;2023-02-01T14:16:42;99767.78;;;16.70;25.82
76858;BME280;65830;0.000;0.000;2023-02-01T14:19:09;99774.44;;;16.82;25.53
76858;BME280;65830;0.000;0.000;2023-02-01T14:21:35;99775.09;;;16.76;25.63
76858;BME280;65830;0.000;0.000;2023-02-01T14:24:21;99770.41;;;16.78;25.48
76858;BME280;65830;0.000;0.000;2023-02-01T14:26:49;99775.88;;;16.61;25.78
76858;BME280;65830;0.000;0.000;2023-02-01T14:31:47;99777.78;;;15.72;27.02
76858;BME280;65830;0.000;0.000;2023-02-01T14:34:18;99777.28;;;14.95;27.73
76858;BME280;65830;0.000;0.000;2023-02-01T14:36:55;99766.88;;;14.41;29.13
76858;BME280;65830;0.000;0.000;2023-02-01T14:41:47;99766.53;;;13.49;30.01
76858;BME280;65830;0.000;0.000;2023-02-01T14:44:14;99770.72;;;13.16;30.60
76858;BME280;65830;0.000;0.000;2023-02-01T14:49:24;99780.75;;;12.86;31.75
76858;BME280;65830;0.000;0.000;2023-02-01T14:51:54;99770.41;;;12.65;32.36
76858;BME280;65830;0.000;0.000;2023-02-01T14:54:21;99785.13;;;12.59;32.43
76858;BME280;65830;0.000;0.000;2023-02-01T14:56:48;99783.06;;;12.25;32.36
76858;BME280;65830;0.000;0.000;2023-02-01T14:59:15;99780.63;;;12.04;33.10
76858;BME280;65830;0.000;0.000;2023-02-01T15:01:49;99778.69;;;11.97;32.90
76858;BME280;65830;0.000;0.000;2023-02-01T15:04:16;99780.84;;;11.64;33.27
76858;BME280;65830;0.000;0.000;2023-02-01T15:14:22;99784.66;;;11.22;34.08
76858;BME280;65830;0.000;0.000;2023-02-01T15:16:48;99771.25;;;11.24;34.51
76858;BME280;65830;0.000;0.000;2023-02-01T15:19:28;99779.34;;;11.22;34.42
76858;BME280;65830;0.000;0.000;2023-02-01T15:21:56;99776.25;;;11.27;34.39
76858;BME280;65830;0.000;0.000;2023-02-01T15:24:23;99779.75;;;11.08;34.58
76858;BME280;65830;0.000;0.000;2023-02-01T15:26:49;99777.09;;;10.98;34.78
76858;BME280;65830;0.000;0.000;2023-02-01T15:29:15;99781.72;;;10.86;35.33
76858;BME280;65830;0.000;0.000;2023-02-01T15:31:42;99769.53;;;10.84;35.26
76858;BME280;65830;0.000;0.000;2023-02-01T15:34:08;99778.72;;;10.70;35.27
76858;BME280;65830;0.000;0.000;2023-02-01T15:36:34;99777.75;;;10.61;35.39
76858;BME280;65830;0.000;0.000;2023-02-01T15:41:49;99785.47;;;10.33;35.30
76858;BME280;65830;0.000;0.000;2023-02-01T15:44:28;99781.09;;;10.23;35.43
76858;BME280;65830;0.000;0.000;2023-02-01T15:46:55;99781.47;;;10.18;35.66
76858;BME280;65830;0.000;0.000;2023-02-01T15:49:26;99787.84;;;10.06;35.68
76858;BME280;65830;0.000;0.000;2023-02-01T15:51:52;99780.69;;;9.97;35.78
76858;BME280;65830;0.000;0.000;2023-02-01T15:54:19;99777.31;;;9.94;35.88
76858;BME280;65830;0.000;0.000;2023-02-01T15:56:54;99782.13;;;10.10;35.73
76858;BME280;65830;0.000;0.000;2023-02-01T16:02:05;99782.31;;;9.88;35.83
76858;BME280;65830;0.000;0.000;2023-02-01T16:04:50;99787.69;;;9.77;35.84
76858;BME280;65830;0.000;0.000;2023-02-01T16:07:25;99785.25;;;9.64;36.21
76858;BME280;65830;0.000;0.000;2023-02-01T16:09:52;99793.66;;;9.48;36.16
76858;BME280;65830;0.000;0.000;2023-02-01T16:12:31;99789.78;;;9.52;36.47